createdAt,value
2023-02-11T00:00:21.156Z,16.30
2023-02-11T00:01:31.950Z,17.90
2023-02-11T00:02:34.483Z,17.50
2023-02-11T00:03:38.957Z,16.40
2023-02-11T00:04:41.622Z,15.90
2023-02-11T00:05:45.180Z,17.90
2023-02-11T00:06:48.333Z,18.80
2023-02-11T00:07:51.136Z,17.40
2023-02-11T00:08:54.165Z,18.18
2023-02-11T00:09:56.646Z,17.00
2023-02-11T00:10:59.283Z,18.00
2023-02-11T00:12:02.735Z,17.00
2023-02-11T00:13:06.109Z,16.90
2023-02-11T00:14:10.700Z,17.90
2023-02-11T00:16:32.634Z,16.20
2023-02-11T00:17:35.699Z,16.70
2023-02-11T00:18:40.065Z,16.80
2023-02-11T00:21:10.584Z,16.40
2023-02-11T00:22:13.030Z,16.00
2023-02-11T00:23:16.444Z,15.70
2023-02-11T00:24:18.954Z,16.90
2023-02-11T00:25:21.744Z,15.90
2023-02-11T00:27:40.548Z,16.40
2023-02-11T00:28:43.051Z,18.00
2023-02-11T00:29:46.235Z,16.90
2023-02-11T00:30:57.468Z,17.40
2023-02-11T00:32:03.432Z,16.40
2023-02-11T00:33:05.949Z,18.20
2023-02-11T00:34:08.399Z,15.60
2023-02-11T00:35:12.589Z,13.00
2023-02-11T00:36:23.684Z,15.50
2023-02-11T00:37:26.465Z,14.40
2023-02-11T00:38:28.729Z,15.64
2023-02-11T00:39:31.622Z,14.50
2023-02-11T00:40:34.933Z,14.10
2023-02-11T00:41:39.255Z,15.40
2023-02-11T00:42:42.487Z,15.60
2023-02-11T00:43:45.063Z,15.90
2023-02-11T00:44:47.446Z,14.10
2023-02-11T00:45:52.487Z,10.70
2023-02-11T00:46:55.241Z,15.40
2023-02-11T00:47:57.552Z,15.80
2023-02-11T00:49:00.562Z,14.64
2023-02-11T00:50:05.678Z,16.40
2023-02-11T00:51:08.336Z,16.00
2023-02-11T00:52:10.669Z,15.20
2023-02-11T00:53:13.151Z,15.10
2023-02-11T00:54:15.479Z,16.90
2023-02-11T00:55:19.444Z,15.30
2023-02-11T00:56:23.070Z,15.36
2023-02-11T00:57:26.030Z,14.80
2023-02-11T00:58:28.506Z,15.50
2023-02-11T00:59:31.192Z,15.80
2023-02-11T01:00:39.566Z,15.09
2023-02-11T01:01:44.628Z,14.40
2023-02-11T01:04:05.514Z,14.90
2023-02-11T01:05:14.070Z,13.90
2023-02-11T01:06:21.745Z,13.20
2023-02-11T01:07:27.749Z,15.40
2023-02-11T01:08:32.556Z,15.10
2023-02-11T01:09:40.695Z,13.90
2023-02-11T01:10:43.541Z,14.60
2023-02-11T01:11:45.864Z,14.20
2023-02-11T01:12:48.615Z,13.90
2023-02-11T01:13:51.818Z,13.00
2023-02-11T01:14:55.986Z,14.40
2023-02-11T01:15:58.478Z,14.90
2023-02-11T01:17:01.215Z,14.91
2023-02-11T01:18:04.965Z,13.80
2023-02-11T01:19:07.594Z,16.10
2023-02-11T01:20:16.276Z,16.30
2023-02-11T01:21:18.959Z,13.70
2023-02-11T01:22:22.324Z,16.70
2023-02-11T01:23:25.888Z,15.00
2023-02-11T01:24:28.701Z,16.60
2023-02-11T01:25:32.250Z,15.50
2023-02-11T01:26:36.068Z,14.90
2023-02-11T01:27:38.954Z,15.90
2023-02-11T01:28:41.910Z,12.70
2023-02-11T01:29:44.273Z,15.00
2023-02-11T01:30:46.780Z,14.50
2023-02-11T01:31:49.457Z,16.20
2023-02-11T01:32:51.852Z,15.00
2023-02-11T01:33:54.508Z,12.70
2023-02-11T01:34:57.119Z,13.73
2023-02-11T01:36:03.648Z,13.20
2023-02-11T01:37:06.106Z,15.00
2023-02-11T01:38:10.501Z,15.00
2023-02-11T01:39:13.368Z,14.10
2023-02-11T01:40:16.822Z,13.70
2023-02-11T01:41:20.163Z,14.20
2023-02-11T01:42:22.753Z,13.30
2023-02-11T01:43:26.359Z,10.20
2023-02-11T01:44:35.542Z,14.60
2023-02-11T01:45:50.775Z,10.40
2023-02-11T01:46:55.050Z,13.80
2023-02-11T01:47:59.836Z,14.36
2023-02-11T01:49:17.969Z,12.10
2023-02-11T01:50:21.207Z,14.20
2023-02-11T01:52:40.865Z,13.80
2023-02-11T01:54:01.852Z,10.40
2023-02-11T01:55:26.775Z,15.10
2023-02-11T01:56:49.555Z,13.70
2023-02-11T01:57:55.397Z,12.20
2023-02-11T01:59:00.961Z,12.90
2023-02-11T02:00:21.015Z,12.80
2023-02-11T02:01:24.619Z,14.10
2023-02-11T02:02:39.692Z,14.40
2023-02-11T02:03:43.404Z,9.40
2023-02-11T02:04:55.753Z,13.80
2023-02-11T02:06:25.904Z,13.40
2023-02-11T02:08:55.443Z,10.50
2023-02-11T02:11:34.955Z,12.50
2023-02-11T02:12:38.440Z,12.30
2023-02-11T02:13:41.219Z,14.10
2023-02-11T02:14:43.774Z,13.10
2023-02-11T02:15:54.681Z,14.40
2023-02-11T02:16:57.495Z,13.80
2023-02-11T02:18:06.676Z,8.90
2023-02-11T02:19:42.172Z,10.60
2023-02-11T02:21:05.535Z,14.30
2023-02-11T02:22:31.596Z,12.80
2023-02-11T02:23:49.859Z,13.80
2023-02-11T02:25:00.404Z,12.20
2023-02-11T02:26:26.858Z,12.40
2023-02-11T02:27:39.168Z,12.70
2023-02-11T02:29:12.930Z,12.30
2023-02-11T02:30:24.865Z,13.70
2023-02-11T02:32:06.260Z,12.80
2023-02-11T02:33:23.096Z,12.60
2023-02-11T02:34:37.941Z,13.20
2023-02-11T02:35:44.188Z,12.60
2023-02-11T02:36:55.774Z,12.10
2023-02-11T02:38:04.756Z,14.60
2023-02-11T02:39:14.701Z,12.50
2023-02-11T02:41:35.558Z,11.90
2023-02-11T02:42:38.595Z,11.20
2023-02-11T02:43:45.301Z,13.30
2023-02-11T02:46:21.803Z,13.00
2023-02-11T02:47:24.348Z,12.10
2023-02-11T02:49:46.041Z,9.30
2023-02-11T02:50:49.450Z,10.10
2023-02-11T02:52:13.164Z,14.10
2023-02-11T02:54:49.322Z,11.90
2023-02-11T02:57:30.186Z,12.70
2023-02-11T02:58:47.308Z,13.30
2023-02-11T03:00:19.969Z,11.60
2023-02-11T03:01:29.787Z,11.90
2023-02-11T03:02:49.432Z,11.30
2023-02-11T03:05:17.444Z,11.70
2023-02-11T03:06:27.735Z,11.10
2023-02-11T03:08:01.238Z,11.80
2023-02-11T03:09:16.180Z,12.80
2023-02-11T03:11:37.690Z,11.90
2023-02-11T03:12:41.066Z,11.60
2023-02-11T03:13:44.096Z,12.10
2023-02-11T03:14:46.526Z,13.10
2023-02-11T03:15:51.148Z,10.40
2023-02-11T03:16:54.641Z,12.70
2023-02-11T03:17:58.711Z,12.20
2023-02-11T03:20:17.852Z,11.80
2023-02-11T03:21:21.672Z,11.50
2023-02-11T03:22:33.201Z,13.00
2023-02-11T03:23:40.956Z,13.00
2023-02-11T03:24:44.982Z,11.00
2023-02-11T03:25:53.182Z,12.80
2023-02-11T03:26:57.437Z,11.70
2023-02-11T03:28:18.281Z,12.30
2023-02-11T03:29:27.695Z,12.50
2023-02-11T03:30:34.637Z,10.70
2023-02-11T03:31:51.062Z,10.40
2023-02-11T03:32:56.177Z,11.60
2023-02-11T03:34:12.101Z,12.30
2023-02-11T03:36:57.911Z,12.30
2023-02-11T03:38:04.092Z,12.30
2023-02-11T03:39:06.779Z,13.60
2023-02-11T03:40:11.548Z,8.90
2023-02-11T03:41:14.367Z,13.50
2023-02-11T03:42:17.752Z,11.50
2023-02-11T03:43:39.580Z,11.80
2023-02-11T03:44:45.748Z,12.30
2023-02-11T03:45:49.669Z,13.40
2023-02-11T03:46:53.608Z,13.20
2023-02-11T03:48:00.535Z,12.10
2023-02-11T03:49:04.720Z,12.00
2023-02-11T03:50:08.648Z,9.40
2023-02-11T03:51:11.819Z,12.20
2023-02-11T03:52:15.192Z,12.27
2023-02-11T03:53:17.566Z,12.00
2023-02-11T03:54:22.959Z,12.50
2023-02-11T03:55:26.336Z,12.80
2023-02-11T03:56:31.676Z,12.10
2023-02-11T03:57:35.277Z,12.90
2023-02-11T03:58:37.600Z,12.60
2023-02-11T04:01:09.744Z,11.30
2023-02-11T04:02:12.726Z,10.60
2023-02-11T04:03:15.893Z,10.60
2023-02-11T04:04:18.810Z,13.27
2023-02-11T04:05:21.962Z,12.00
2023-02-11T04:06:24.717Z,12.90
2023-02-11T04:07:27.351Z,9.00
2023-02-11T04:08:32.158Z,12.10
2023-02-11T04:09:36.245Z,13.30
2023-02-11T04:10:38.811Z,11.80
2023-02-11T04:11:41.135Z,13.80
2023-02-11T04:12:43.353Z,12.30
2023-02-11T04:13:45.656Z,13.40
2023-02-11T04:14:48.165Z,13.80
2023-02-11T04:15:51.058Z,11.80
2023-02-11T04:16:54.709Z,14.60
2023-02-11T04:17:58.487Z,12.70
2023-02-11T04:19:01.199Z,12.20
2023-02-11T04:20:04.859Z,13.82
2023-02-11T04:21:07.564Z,13.50
2023-02-11T04:22:10.663Z,12.30
2023-02-11T04:23:13.477Z,12.10
2023-02-11T04:24:16.249Z,12.80
2023-02-11T04:25:18.574Z,12.30
2023-02-11T04:26:21.375Z,14.00
2023-02-11T04:27:24.187Z,13.55
2023-02-11T04:28:28.871Z,12.73
2023-02-11T04:29:31.537Z,12.70
2023-02-11T04:30:34.190Z,12.20
2023-02-11T04:31:36.674Z,12.00
2023-02-11T04:32:39.151Z,12.60
2023-02-11T04:33:41.477Z,10.80
2023-02-11T04:34:45.661Z,12.10
2023-02-11T04:35:49.503Z,14.60
2023-02-11T04:36:52.628Z,12.50
2023-02-11T04:37:54.967Z,12.82
2023-02-11T04:38:57.671Z,14.40
2023-02-11T04:40:00.735Z,13.40
2023-02-11T04:41:03.033Z,13.10
2023-02-11T04:42:07.124Z,13.00
2023-02-11T04:43:09.796Z,13.50
2023-02-11T04:44:12.203Z,13.10
2023-02-11T04:45:14.689Z,13.40
2023-02-11T04:46:18.887Z,13.90
2023-02-11T04:47:22.502Z,14.30
2023-02-11T04:48:25.389Z,12.70
2023-02-11T04:49:28.342Z,13.40
2023-02-11T04:50:31.721Z,13.90
2023-02-11T04:51:35.608Z,13.00
2023-02-11T04:52:38.894Z,10.30
2023-02-11T04:53:41.504Z,11.70
2023-02-11T04:54:45.290Z,12.73
2023-02-11T04:55:51.464Z,15.70
2023-02-11T04:56:55.008Z,13.10
2023-02-11T04:57:57.795Z,13.00
2023-02-11T04:59:00.208Z,14.10
2023-02-11T05:00:04.528Z,14.90
2023-02-11T05:01:08.655Z,13.50
2023-02-11T05:02:11.757Z,13.70
2023-02-11T05:03:14.259Z,13.30
2023-02-11T05:04:16.819Z,13.70
2023-02-11T05:05:19.409Z,10.10
2023-02-11T05:06:22.688Z,12.73
2023-02-11T05:07:25.613Z,13.20
2023-02-11T05:08:28.187Z,14.40
2023-02-11T05:09:31.567Z,14.10
2023-02-11T05:10:34.405Z,12.00
2023-02-11T05:11:38.770Z,13.00
2023-02-11T05:12:41.371Z,14.40
2023-02-11T05:13:43.810Z,14.10
2023-02-11T05:14:46.515Z,12.60
2023-02-11T05:15:49.343Z,13.27
2023-02-11T05:16:52.865Z,15.80
2023-02-11T05:18:03.055Z,15.20
2023-02-11T05:19:09.679Z,14.90
2023-02-11T05:20:13.319Z,12.20
2023-02-11T05:21:17.290Z,14.10
2023-02-11T05:23:35.987Z,13.10
2023-02-11T05:24:38.703Z,13.20
2023-02-11T05:25:41.793Z,15.80
2023-02-11T05:27:59.138Z,12.20
2023-02-11T05:29:01.765Z,14.27
2023-02-11T05:30:06.182Z,13.20
2023-02-11T05:31:10.166Z,13.20
2023-02-11T05:32:12.735Z,13.20
2023-02-11T05:33:15.879Z,13.50
2023-02-11T05:34:18.353Z,14.30
2023-02-11T05:35:20.673Z,14.10
2023-02-11T05:36:23.071Z,13.00
2023-02-11T05:37:25.501Z,14.80
2023-02-11T05:38:28.753Z,13.90
2023-02-11T05:39:31.168Z,15.60
2023-02-11T05:40:35.961Z,15.00
2023-02-11T05:41:38.396Z,15.20
2023-02-11T05:42:40.611Z,13.20
2023-02-11T05:43:43.013Z,14.60
2023-02-11T05:44:45.460Z,13.30
2023-02-11T05:45:47.947Z,12.90
2023-02-11T05:46:50.980Z,13.30
2023-02-11T05:47:53.942Z,13.80
2023-02-11T05:48:56.348Z,14.82
2023-02-11T05:49:58.755Z,13.90
2023-02-11T05:51:01.186Z,13.20
2023-02-11T05:52:04.905Z,15.30
2023-02-11T05:53:07.355Z,15.60
2023-02-11T05:54:10.174Z,15.00
2023-02-11T05:55:14.384Z,15.50
2023-02-11T05:56:19.164Z,16.00
2023-02-11T05:57:22.787Z,18.40
2023-02-11T05:58:25.518Z,14.60
2023-02-11T05:59:27.816Z,17.50
2023-02-11T06:00:30.329Z,17.90
2023-02-11T06:01:32.808Z,17.00
2023-02-11T06:02:36.191Z,17.80
2023-02-11T06:03:38.663Z,19.10
2023-02-11T06:04:41.219Z,19.30
2023-02-11T06:05:44.343Z,18.90
2023-02-11T06:06:46.801Z,18.30
2023-02-11T06:07:50.081Z,19.20
2023-02-11T06:08:53.005Z,20.09
2023-02-11T06:09:56.247Z,19.30
2023-02-11T06:10:58.918Z,19.50
2023-02-11T06:12:01.257Z,19.90
2023-02-11T06:13:03.810Z,18.20
2023-02-11T06:14:07.386Z,20.60
2023-02-11T06:15:09.974Z,20.30
2023-02-11T06:16:13.823Z,20.20
2023-02-11T06:17:16.393Z,18.18
2023-02-11T06:18:18.727Z,19.50
2023-02-11T06:19:21.892Z,20.10
2023-02-11T06:20:24.932Z,19.90
2023-02-11T06:21:42.440Z,21.73
2023-02-11T06:22:34.850Z,20.60
2023-02-11T06:23:38.211Z,19.30
2023-02-11T06:25:00.367Z,20.90
2023-02-11T06:25:46.762Z,17.50
2023-02-11T06:26:49.666Z,21.50
2023-02-11T06:27:52.374Z,21.40
2023-02-11T06:28:54.881Z,21.36
2023-02-11T06:29:57.948Z,22.64
2023-02-11T06:32:42.110Z,23.30
2023-02-11T06:33:25.221Z,21.40
2023-02-11T06:34:27.464Z,22.30
2023-02-11T06:35:30.423Z,21.91
2023-02-11T06:36:32.960Z,18.70
2023-02-11T06:37:35.348Z,21.90
2023-02-11T06:38:38.085Z,21.70
2023-02-11T06:39:41.211Z,23.73
2023-02-11T06:40:48.451Z,23.00
2023-02-11T06:41:51.298Z,19.50
2023-02-11T06:42:54.745Z,22.50
2023-02-11T06:43:57.776Z,22.40
2023-02-11T06:45:00.377Z,21.09
2023-02-11T06:46:03.137Z,22.00
2023-02-11T06:47:05.467Z,21.80
2023-02-11T06:48:07.999Z,19.80
2023-02-11T06:49:10.508Z,22.70
2023-02-11T06:50:15.371Z,21.80
2023-02-11T06:51:18.347Z,23.30
2023-02-11T06:52:20.805Z,23.10
2023-02-11T06:53:24.983Z,23.36
2023-02-11T06:54:28.312Z,23.90
2023-02-11T06:55:30.690Z,23.20
2023-02-11T06:56:34.312Z,22.60
2023-02-11T06:57:38.753Z,24.00
2023-02-11T06:58:42.272Z,22.80
2023-02-11T06:59:44.967Z,24.90
2023-02-11T07:00:48.892Z,23.50
2023-02-11T07:01:52.087Z,22.00
2023-02-11T07:02:55.218Z,22.70
2023-02-11T07:04:00.555Z,23.60
2023-02-11T07:05:04.979Z,22.20
2023-02-11T07:06:09.064Z,23.70
2023-02-11T07:07:11.974Z,23.60
2023-02-11T07:08:14.355Z,23.27
2023-02-11T07:09:17.962Z,23.90
2023-02-11T07:10:20.901Z,23.70
2023-02-11T07:12:39.266Z,23.30
2023-02-11T07:13:42.456Z,23.00
2023-02-11T07:14:45.598Z,19.60
2023-02-11T07:15:48.038Z,22.00
2023-02-11T07:16:50.859Z,18.27
2023-02-11T07:17:53.759Z,21.60
2023-02-11T07:18:56.120Z,21.60
2023-02-11T07:19:58.438Z,23.20
2023-02-11T07:21:05.913Z,21.50
2023-02-11T07:22:09.555Z,23.70
2023-02-11T07:23:12.043Z,23.20
2023-02-11T07:24:14.332Z,23.60
2023-02-11T07:25:16.825Z,21.80
2023-02-11T07:26:22.584Z,21.30
2023-02-11T07:27:24.980Z,22.60
2023-02-11T07:28:27.327Z,23.30
2023-02-11T07:29:30.064Z,24.00
2023-02-11T07:30:32.582Z,22.10
2023-02-11T07:31:36.144Z,22.90
2023-02-11T07:32:39.377Z,23.00
2023-02-11T07:33:41.807Z,22.80
2023-02-11T07:34:44.830Z,22.27
2023-02-11T07:35:49.364Z,22.30
2023-02-11T07:36:52.115Z,23.20
2023-02-11T07:37:54.532Z,23.40
2023-02-11T07:38:58.302Z,21.90
2023-02-11T07:40:00.671Z,21.73
2023-02-11T07:41:04.970Z,22.30
2023-02-11T07:42:08.556Z,22.10
2023-02-11T07:43:11.632Z,21.40
2023-02-11T07:44:13.910Z,17.60
2023-02-11T07:45:16.907Z,20.80
2023-02-11T07:47:35.095Z,4.20
2023-02-11T07:48:37.825Z,20.64
2023-02-11T07:49:40.045Z,20.60
2023-02-11T07:50:42.645Z,16.10
2023-02-11T07:51:45.454Z,21.00
2023-02-11T07:52:47.834Z,22.36
2023-02-11T07:53:52.453Z,21.82
2023-02-11T07:54:55.363Z,21.70
2023-02-11T07:55:59.810Z,22.10
2023-02-11T07:57:02.127Z,21.70
2023-02-11T07:58:04.439Z,21.90
2023-02-11T07:59:11.083Z,20.50
2023-02-11T08:00:17.501Z,22.50
2023-02-11T08:01:24.991Z,23.10
2023-02-11T08:02:27.866Z,21.20
2023-02-11T08:03:30.306Z,22.30
2023-02-11T08:04:34.471Z,22.70
2023-02-11T08:05:38.808Z,23.30
2023-02-11T08:06:42.469Z,22.80
2023-02-11T08:07:45.813Z,10.20
2023-02-11T08:08:48.353Z,23.10
2023-02-11T08:09:51.255Z,24.00
2023-02-11T08:10:55.420Z,23.20
2023-02-11T08:11:57.942Z,23.40
2023-02-11T08:13:00.884Z,22.90
2023-02-11T08:14:03.980Z,22.91
2023-02-11T08:16:23.298Z,23.80
2023-02-11T08:17:26.627Z,22.40
2023-02-11T08:18:30.113Z,22.40
2023-02-11T08:19:35.115Z,22.20
2023-02-11T08:20:37.079Z,22.80
2023-02-11T08:21:40.764Z,22.30
2023-02-11T08:22:43.278Z,22.60
2023-02-11T08:23:45.820Z,22.80
2023-02-11T08:24:50.672Z,21.90
2023-02-11T08:25:52.435Z,23.30
2023-02-11T08:26:55.445Z,23.50
2023-02-11T08:27:58.443Z,21.60
2023-02-11T08:29:01.914Z,23.10
2023-02-11T08:30:05.822Z,23.50
2023-02-11T08:31:09.517Z,21.60
2023-02-11T08:32:12.751Z,22.10
2023-02-11T08:33:15.274Z,22.60
2023-02-11T08:34:19.053Z,22.80
2023-02-11T08:35:21.509Z,21.90
2023-02-11T08:36:27.907Z,22.40
2023-02-11T08:37:33.269Z,21.60
2023-02-11T08:38:36.229Z,23.40
2023-02-11T08:39:40.842Z,22.90
2023-02-11T08:40:44.983Z,23.20
2023-02-11T08:41:52.276Z,22.60
2023-02-11T08:42:54.637Z,20.50
2023-02-11T08:43:57.025Z,23.80
2023-02-11T08:44:59.255Z,23.30
2023-02-11T08:46:03.422Z,23.00
2023-02-11T08:47:07.729Z,22.70
2023-02-11T08:48:10.191Z,22.30
2023-02-11T08:49:12.996Z,22.90
2023-02-11T08:50:18.228Z,21.40
2023-02-11T08:51:23.458Z,23.20
2023-02-11T08:52:26.721Z,23.50
2023-02-11T08:53:29.838Z,23.60
2023-02-11T08:54:32.507Z,23.90
2023-02-11T08:55:35.247Z,23.60
2023-02-11T08:56:38.312Z,23.09
2023-02-11T08:57:44.306Z,23.90
2023-02-11T08:58:47.814Z,23.30
2023-02-11T08:59:51.002Z,23.30
2023-02-11T09:00:54.051Z,24.40
2023-02-11T09:01:57.511Z,22.80
2023-02-11T09:03:01.599Z,22.80
2023-02-11T09:04:04.966Z,22.90
2023-02-11T09:05:10.526Z,23.70
2023-02-11T09:06:15.542Z,24.40
2023-02-11T09:07:18.213Z,24.30
2023-02-11T09:08:21.934Z,22.80
2023-02-11T09:09:24.917Z,23.80
2023-02-11T09:10:29.781Z,22.55
2023-02-11T09:11:34.527Z,22.90
2023-02-11T09:12:37.909Z,23.20
2023-02-11T09:14:56.756Z,23.40
2023-02-11T09:16:00.447Z,23.60
2023-02-11T09:17:04.938Z,23.50
2023-02-11T09:18:08.533Z,23.70
2023-02-11T09:19:11.690Z,23.40
2023-02-11T09:20:19.134Z,22.60
2023-02-11T09:21:21.905Z,23.40
2023-02-11T09:22:24.586Z,23.30
2023-02-11T09:23:28.117Z,22.64
2023-02-11T09:24:32.519Z,22.60
2023-02-11T09:25:34.981Z,23.20
2023-02-11T09:26:37.514Z,23.30
2023-02-11T09:27:41.133Z,22.00
2023-02-11T09:28:44.859Z,21.00
2023-02-11T09:29:48.129Z,23.00
2023-02-11T09:30:51.269Z,21.00
2023-02-11T09:31:54.750Z,21.30
2023-02-11T09:32:58.181Z,21.80
2023-02-11T09:34:11.392Z,22.36
2023-02-11T09:35:20.868Z,21.60
2023-02-11T09:37:41.696Z,19.80
2023-02-11T09:38:44.928Z,22.00
2023-02-11T09:39:51.762Z,19.10
2023-02-11T09:40:55.641Z,20.80
2023-02-11T09:42:37.780Z,20.20
2023-02-11T09:43:47.676Z,22.00
2023-02-11T09:44:51.726Z,20.30
2023-02-11T09:45:54.950Z,21.80
2023-02-11T09:47:08.594Z,20.70
2023-02-11T09:48:27.037Z,21.80
2023-02-11T09:49:43.952Z,17.70
2023-02-11T09:52:31.288Z,21.50
2023-02-11T09:53:37.894Z,20.50
2023-02-11T09:54:52.050Z,18.50
2023-02-11T09:56:02.323Z,21.90
2023-02-11T09:57:06.397Z,23.00
2023-02-11T09:59:31.485Z,26.90
2023-02-11T10:00:58.488Z,25.40
2023-02-11T10:02:08.200Z,25.90
2023-02-11T10:05:07.458Z,27.70
2023-02-11T10:06:25.406Z,27.90
2023-02-11T10:07:37.927Z,27.80
2023-02-11T10:09:08.803Z,24.80
2023-02-11T10:10:18.391Z,26.40
2023-02-11T10:11:54.339Z,25.70
2023-02-11T10:13:00.881Z,26.60
2023-02-11T10:14:27.991Z,33.20
2023-02-11T10:16:07.050Z,33.70
2023-02-11T10:18:54.932Z,35.20
2023-02-11T10:20:10.226Z,33.30
2023-02-11T10:21:42.446Z,33.00
2023-02-11T10:22:49.574Z,33.20
2023-02-11T10:23:54.939Z,29.00
2023-02-11T10:25:00.590Z,30.90
2023-02-11T10:26:03.494Z,31.00
2023-02-11T10:27:10.300Z,29.70
2023-02-11T10:29:38.518Z,29.70
2023-02-11T10:30:52.415Z,28.70
2023-02-11T10:31:58.219Z,27.00
2023-02-11T10:33:15.873Z,29.10
2023-02-11T10:34:19.798Z,27.90
2023-02-11T10:35:23.098Z,26.00
2023-02-11T10:36:28.582Z,28.00
2023-02-11T10:37:31.820Z,27.50
2023-02-11T10:38:36.409Z,27.50
2023-02-11T10:39:40.073Z,25.30
2023-02-11T10:40:43.295Z,26.70
2023-02-11T10:42:14.826Z,27.80
2023-02-11T10:44:56.065Z,26.10
2023-02-11T10:45:59.314Z,25.20
2023-02-11T10:47:06.092Z,25.60
2023-02-11T10:49:44.100Z,26.00
2023-02-11T10:50:46.688Z,23.70
2023-02-11T10:51:50.689Z,19.60
2023-02-11T10:52:55.720Z,23.30
2023-02-11T10:54:07.713Z,24.50
2023-02-11T10:56:34.067Z,25.40
2023-02-11T10:57:39.543Z,21.80
2023-02-11T10:58:46.758Z,23.70
2023-02-11T10:59:49.355Z,24.60
2023-02-11T11:01:24.443Z,23.30
2023-02-11T11:02:28.653Z,24.11
2023-02-11T11:03:37.656Z,22.90
2023-02-11T11:04:44.563Z,23.70
2023-02-11T11:07:21.450Z,20.60
2023-02-11T11:11:06.618Z,21.60
2023-02-11T11:12:32.933Z,23.00
2023-02-11T11:13:40.250Z,20.30
2023-02-11T11:14:46.511Z,23.10
2023-02-11T11:17:33.230Z,20.60
2023-02-11T11:18:38.640Z,22.80
2023-02-11T11:20:59.513Z,21.00
2023-02-11T11:22:02.943Z,22.70
2023-02-11T11:23:26.409Z,21.60
2023-02-11T11:24:48.228Z,21.50
2023-02-11T11:26:12.685Z,22.20
2023-02-11T11:27:21.736Z,21.90
2023-02-11T11:28:26.543Z,22.30
2023-02-11T11:30:48.419Z,18.90
2023-02-11T11:31:53.824Z,18.00
2023-02-11T11:32:57.746Z,22.50
2023-02-11T11:34:02.886Z,22.50
2023-02-11T11:35:10.569Z,21.60
2023-02-11T11:36:18.761Z,23.40
2023-02-11T11:37:27.942Z,21.60
2023-02-11T11:38:31.528Z,22.00
2023-02-11T11:39:34.275Z,21.30
2023-02-11T11:40:37.995Z,22.10
2023-02-11T11:41:42.324Z,21.10
2023-02-11T11:42:46.536Z,21.50
2023-02-11T11:44:03.900Z,23.00
2023-02-11T11:45:24.789Z,21.90
2023-02-11T11:46:36.205Z,22.50
2023-02-11T11:47:41.367Z,21.90
2023-02-11T11:48:47.051Z,20.60
2023-02-11T11:50:22.747Z,18.60
2023-02-11T11:51:29.068Z,20.50
2023-02-11T11:52:43.251Z,21.60
2023-02-11T11:55:43.301Z,22.80
2023-02-11T11:56:52.674Z,20.10
2023-02-11T11:57:55.676Z,20.30
2023-02-11T12:00:30.451Z,19.80
2023-02-11T12:02:13.600Z,21.50
2023-02-11T12:03:45.313Z,20.60
2023-02-11T12:06:40.578Z,19.20
2023-02-11T12:08:06.788Z,20.90
2023-02-11T12:09:28.862Z,21.10
2023-02-11T12:10:53.986Z,20.80
2023-02-11T12:13:27.387Z,19.50
2023-02-11T12:15:00.576Z,20.40
2023-02-11T12:16:24.084Z,20.60
2023-02-11T12:18:07.801Z,21.30
2023-02-11T12:19:44.206Z,19.80
2023-02-11T12:21:00.183Z,21.20
2023-02-11T12:22:14.945Z,21.00
2023-02-11T12:23:38.137Z,19.10
2023-02-11T12:25:02.962Z,20.00
2023-02-11T12:26:13.064Z,20.30
2023-02-11T12:27:32.924Z,20.80
2023-02-11T12:29:00.194Z,20.20
2023-02-11T12:30:30.518Z,21.40
2023-02-11T12:32:01.370Z,20.20
2023-02-11T12:33:41.537Z,20.10
2023-02-11T12:34:56.574Z,20.30
2023-02-11T12:36:10.045Z,19.80
2023-02-11T12:37:42.002Z,20.70
2023-02-11T12:39:08.692Z,19.30
2023-02-11T12:40:25.624Z,20.60
2023-02-11T12:42:09.697Z,20.50
2023-02-11T12:43:24.021Z,20.10
2023-02-11T12:44:38.545Z,20.50
2023-02-11T12:46:16.917Z,19.50
2023-02-11T12:47:43.219Z,20.40
2023-02-11T12:49:02.174Z,21.30
2023-02-11T12:50:28.165Z,19.80
2023-02-11T12:52:00.718Z,20.00
2023-02-11T12:53:28.680Z,20.60
2023-02-11T12:54:42.170Z,20.60
2023-02-11T12:55:47.658Z,19.90
2023-02-11T12:57:04.298Z,19.70
2023-02-11T12:58:09.291Z,20.50
2023-02-11T12:59:31.900Z,20.10
2023-02-11T13:02:19.990Z,19.40
2023-02-11T13:03:29.438Z,20.10
2023-02-11T13:04:37.394Z,19.40
2023-02-11T13:05:57.949Z,19.70
2023-02-11T13:07:04.973Z,18.50
2023-02-11T13:09:41.173Z,19.80
2023-02-11T13:10:47.324Z,19.90
2023-02-11T13:13:18.252Z,18.80
2023-02-11T13:14:35.272Z,21.37
2023-02-11T13:15:38.657Z,20.60
2023-02-11T13:16:44.247Z,20.30
2023-02-11T13:17:53.608Z,20.20
2023-02-11T13:19:03.249Z,19.40
2023-02-11T13:20:28.940Z,19.50
2023-02-11T13:23:43.051Z,17.60
2023-02-11T13:26:23.608Z,17.10
2023-02-11T13:29:13.557Z,19.80
2023-02-11T13:30:33.384Z,15.10
2023-02-11T13:31:37.081Z,19.50
2023-02-11T13:32:59.914Z,20.20
2023-02-11T13:34:04.365Z,20.80
2023-02-11T13:35:12.726Z,18.50
2023-02-11T13:37:37.953Z,19.70
2023-02-11T13:38:40.357Z,19.00
2023-02-11T13:39:43.661Z,19.20
2023-02-11T13:40:50.164Z,19.40
2023-02-11T13:41:55.903Z,19.20
2023-02-11T13:42:59.841Z,18.70
2023-02-11T13:44:12.513Z,18.50
2023-02-11T13:47:00.859Z,19.40
2023-02-11T13:48:09.525Z,19.70
2023-02-11T13:50:35.900Z,18.60
2023-02-11T13:51:40.020Z,18.20
2023-02-11T13:52:43.090Z,19.40
2023-02-11T13:55:16.844Z,19.70
2023-02-11T13:56:31.946Z,19.50
2023-02-11T13:57:36.690Z,20.60
2023-02-11T13:58:48.896Z,18.10
2023-02-11T14:01:41.314Z,10.40
2023-02-11T14:03:02.993Z,19.60
2023-02-11T14:04:41.739Z,19.40
2023-02-11T14:06:07.299Z,19.20
2023-02-11T14:07:40.482Z,19.60
2023-02-11T14:09:03.954Z,18.00
2023-02-11T14:10:27.874Z,17.80
2023-02-11T14:11:54.975Z,19.90
2023-02-11T14:13:06.531Z,18.80
2023-02-11T14:14:36.409Z,16.00
2023-02-11T14:15:40.017Z,17.20
2023-02-11T14:17:08.908Z,17.10
2023-02-11T14:18:45.819Z,18.10
2023-02-11T14:19:48.999Z,16.00
2023-02-11T14:20:54.544Z,17.70
2023-02-11T14:22:03.453Z,20.00
2023-02-11T14:23:06.767Z,16.80
2023-02-11T14:24:13.795Z,16.50
2023-02-11T14:26:50.574Z,16.30
2023-02-11T14:28:04.198Z,17.00
2023-02-11T14:29:34.915Z,18.00
2023-02-11T14:32:42.001Z,17.20
2023-02-11T14:34:09.641Z,17.10
2023-02-11T14:35:18.812Z,16.90
2023-02-11T14:36:44.204Z,16.50
2023-02-11T14:38:07.669Z,16.30
2023-02-11T14:41:01.834Z,16.20
2023-02-11T14:42:04.808Z,17.20
2023-02-11T14:44:30.576Z,18.20
2023-02-11T14:45:33.963Z,16.50
2023-02-11T14:46:36.704Z,17.10
2023-02-11T14:48:03.205Z,19.64
2023-02-11T14:49:06.028Z,17.40
2023-02-11T14:50:21.182Z,16.30
2023-02-11T14:51:31.007Z,16.20
2023-02-11T14:52:34.987Z,16.50
2023-02-11T14:53:38.042Z,18.70
2023-02-11T14:54:41.385Z,16.55
2023-02-11T14:55:48.763Z,17.90
2023-02-11T14:58:31.353Z,15.10
2023-02-11T14:59:36.942Z,15.50
2023-02-11T15:00:58.228Z,17.10
2023-02-11T15:02:01.369Z,16.40
2023-02-11T15:03:04.855Z,15.50
2023-02-11T15:04:23.207Z,11.90
2023-02-11T15:05:27.678Z,15.80
2023-02-11T15:06:37.996Z,15.90
2023-02-11T15:07:48.580Z,15.80
2023-02-11T15:09:01.931Z,16.90
2023-02-11T15:10:07.364Z,17.10
2023-02-11T15:11:12.957Z,17.30
2023-02-11T15:12:20.255Z,17.40
2023-02-11T15:13:27.147Z,16.60
2023-02-11T15:14:35.379Z,16.60
2023-02-11T15:15:42.011Z,17.20
2023-02-11T15:16:45.764Z,15.80
2023-02-11T15:17:48.294Z,16.60
2023-02-11T15:20:15.842Z,16.40
2023-02-11T15:21:27.092Z,17.00
2023-02-11T15:22:32.932Z,16.90
2023-02-11T15:23:35.747Z,15.40
2023-02-11T15:24:40.405Z,15.40
2023-02-11T15:25:49.448Z,15.30
2023-02-11T15:27:07.435Z,15.30
2023-02-11T15:28:20.894Z,17.00
2023-02-11T15:29:27.185Z,15.00
2023-02-11T15:30:34.557Z,14.80
2023-02-11T15:31:37.564Z,15.70
2023-02-11T15:32:48.128Z,13.30
2023-02-11T15:33:51.266Z,14.60
2023-02-11T15:34:59.738Z,14.70
2023-02-11T15:36:04.972Z,16.30
2023-02-11T15:37:07.924Z,14.30
2023-02-11T15:38:11.539Z,16.70
2023-02-11T15:39:38.809Z,13.40
2023-02-11T15:41:00.348Z,12.40
2023-02-11T15:42:20.454Z,13.60
2023-02-11T15:43:23.023Z,14.20
2023-02-11T15:44:28.249Z,13.40
2023-02-11T15:45:34.814Z,14.60
2023-02-11T15:46:38.396Z,13.30
2023-02-11T15:47:45.055Z,14.90
2023-02-11T15:48:50.513Z,13.70
2023-02-11T15:49:55.192Z,14.00
2023-02-11T15:51:01.986Z,13.90
2023-02-11T15:52:07.340Z,13.40
2023-02-11T15:53:31.066Z,13.70
2023-02-11T15:54:37.476Z,14.20
2023-02-11T15:55:40.516Z,15.00
2023-02-11T15:56:47.356Z,14.00